Observation data for White River Lake on 12/09/2018      Previous  Date       Current Mesonet Observations  Soil Data  Daily Summary Page  Observations in Plain Language
KWVS 090600Z 30006KT M04/M05 A303 RMK A01 T10371053  RH  090%=      5-min Rain = 0
KWVS 090605Z 31006KT M03/M05 A303 RMK A01 T10321047  RH  090%=      5-min Rain = 0
KWVS 090610Z 31005KT M03/M04 A303 RMK A01 T10291044  RH  090%=      5-min Rain = 0
KWVS 090615Z 29004KT M03/M05 A303 RMK A01 T10311046  RH  090%=      5-min Rain = 0
KWVS 090620Z 29005KT M04/M05 A303 RMK A01 T10351050  RH  090%=      5-min Rain = 0
KWVS 090625Z 31004KT M03/M05 A303 RMK A01 T10341049  RH  090%=      5-min Rain = 0
KWVS 090630Z 31005KT M03/M05 A303 RMK A01 T10331047  RH  090%=      5-min Rain = 0
KWVS 090635Z 32006KT M03/M05 A303 RMK A01 T10331047  RH  091%=      5-min Rain = 0
KWVS 090640Z 31008KT M04/M05 A303 RMK A01 T10371050  RH  091%=      5-min Rain = 0
KWVS 090645Z 31008KT M04/M05 A303 RMK A01 T10371050  RH  091%=      5-min Rain = 0
KWVS 090650Z 31006KT M04/M05 A303 RMK A01 T10361049  RH  091%=      5-min Rain = 0
KWVS 090655Z 32008KT M03/M05 A303 RMK A01 T10331046  RH  092%=      5-min Rain = 0
KWVS 090700Z 32009KT M03/M05 A303 RMK A01 T10331046  RH  091%=      5-min Rain = 0
KWVS 090705Z 31009KT M03/M05 A3029 RMK A01 T10341047  RH  091%=      5-min Rain = 0
KWVS 090710Z 32009KT M03/M05 A3029 RMK A01 T10341047  RH  091%=      5-min Rain = 0
KWVS 090715Z 32008KT M04/M05 A3029 RMK A01 T10371051  RH  090%=      5-min Rain = 0
KWVS 090720Z 32007KT M04/M06 A3029 RMK A01 T10411056  RH  090%=      5-min Rain = 0
KWVS 090725Z 32008KT M04/M06 A3029 RMK A01 T10431058  RH  090%=      5-min Rain = 0
KWVS 090730Z 32008KT M04/M06 A3029 RMK A01 T10441058  RH  090%=      5-min Rain = 0
KWVS 090735Z 33008KT M04/M06 A3029 RMK A01 T10441058  RH  090%=      5-min Rain = 0
KWVS 090740Z 34008KT M04/M06 A3029 RMK A01 T10441058  RH  090%=      5-min Rain = 0
KWVS 090745Z 33010KT M05/M06 A3029 RMK A01 T10461059  RH  090%=      5-min Rain = 0
KWVS 090750Z 33010KT M05/M06 A3029 RMK A01 T10471061  RH  090%=      5-min Rain = 0
KWVS 090755Z 33009KT M05/M06 A3029 RMK A01 T10471061  RH  090%=      5-min Rain = 0
KWVS 090800Z 33008KT M05/M06 A3029 RMK A01 T10471061  RH  090%=      5-min Rain = 0
KWVS 090805Z 33008KT M05/M06 A3029 RMK A01 T10481061  RH  091%=      5-min Rain = 0
KWVS 090810Z 33008KT M05/M06 A3029 RMK A01 T10481061  RH  091%=      5-min Rain = 0
KWVS 090815Z 33008KT M05/M06 A3029 RMK A01 T10491062  RH  091%=      5-min Rain = 0
KWVS 090820Z 33008KT M05/M06 A3029 RMK A01 T10491062  RH  091%=      5-min Rain = 0
KWVS 090825Z 34008KT M05/M06 A3029 RMK A01 T10491063  RH  091%=      5-min Rain = 0
KWVS 090830Z 34010KT M05/M07 A3029 RMK A01 T10521065  RH  090%=      5-min Rain = 0
KWVS 090835Z 34010KT M05/M07 A3029 RMK A01 T10531067  RH  090%=      5-min Rain = 0
KWVS 090840Z 34010KT M06/M07 A3029 RMK A01 T10561070  RH  090%=      5-min Rain = 0
KWVS 090845Z 33010KT M06/M07 A3029 RMK A01 T10561070  RH  090%=      5-min Rain = 0
KWVS 090850Z 33010KT M06/M07 A3029 RMK A01 T10571071  RH  090%=      5-min Rain = 0
KWVS 090855Z 33009KT M06/M07 A3029 RMK A01 T10571071  RH  090%=      5-min Rain = 0
KWVS 090900Z 33008KT M06/M07 A3029 RMK A01 T10581072  RH  090%=      5-min Rain = 0
KWVS 090905Z 33008KT M06/M07 A3029 RMK A01 T10571071  RH  090%=      5-min Rain = 0
KWVS 090910Z 33007KT M06/M07 A3029 RMK A01 T10571071  RH  090%=      5-min Rain = 0
KWVS 090915Z 33008KT M06/M07 A3029 RMK A01 T10591073  RH  090%=      5-min Rain = 0
KWVS 090920Z 32009KT M06/M07 A3029 RMK A01 T10581072  RH  090%=      5-min Rain = 0
KWVS 090925Z 33008KT M06/M08 A3029 RMK A01 T10601075  RH  090%=      5-min Rain = 0
KWVS 090930Z 33008KT M06/M08 A3029 RMK A01 T10631077  RH  090%=      5-min Rain = 0
KWVS 090935Z 33007KT M06/M08 A3029 RMK A01 T10641078  RH  090%=      5-min Rain = 0
KWVS 090940Z 33009KT M07/M08 A3029 RMK A01 T10651079  RH  090%=      5-min Rain = 0
KWVS 090945Z 33009KT M07/M08 A3029 RMK A01 T10671081  RH  089%=      5-min Rain = 0
KWVS 090950Z 33010KT M07/M08 A3029 RMK A01 T10681083  RH  089%=      5-min Rain = 0
KWVS 090955Z 33009KT M07/M09 A3029 RMK A01 T10701085  RH  089%=      5-min Rain = 0
KWVS 091000Z 34009KT M07/M08 A3029 RMK A01 T10701084  RH  089%=      5-min Rain = 0
KWVS 091005Z 34009KT M07/M08 A3029 RMK A01 T10701084  RH  089%=      5-min Rain = 0
KWVS 091010Z 33009KT M07/M08 A3029 RMK A01 T10701084  RH  090%=      5-min Rain = 0
KWVS 091015Z 33009KT M07/M08 A3029 RMK A01 T10691083  RH  090%=      5-min Rain = 0
KWVS 091020Z 33011KT M07/M08 A3029 RMK A01 T10681081  RH  090%=      5-min Rain = 0
KWVS 091025Z 33012KT M07/M08 A3029 RMK A01 T10701083  RH  090%=      5-min Rain = 0
KWVS 091030Z 33011KT M07/M09 A3029 RMK A01 T10721085  RH  090%=      5-min Rain = 0
KWVS 091035Z 34011KT M07/M09 A3029 RMK A01 T10721085  RH  090%=      5-min Rain = 0
KWVS 091040Z 33012KT M07/M08 A3029 RMK A01 T10701083  RH  091%=      5-min Rain = 0
KWVS 091045Z 33010KT M07/M08 A3029 RMK A01 T10691081  RH  091%=      5-min Rain = 0
KWVS 091050Z 33011KT M07/M08 A3029 RMK A01 T10691081  RH  091%=      5-min Rain = 0
KWVS 091055Z 33010KT M07/M08 A303 RMK A01 T10681080  RH  091%=      5-min Rain = 0
KWVS 091100Z 34010KT M07/M08 A303 RMK A01 T10691081  RH  091%=      5-min Rain = 0
KWVS 091105Z 34009KT M07/M08 A303 RMK A01 T10701082  RH  091%=      5-min Rain = 0
KWVS 091110Z 33009KT M07/M08 A303 RMK A01 T10691081  RH  091%=      5-min Rain = 0
KWVS 091115Z 33010KT M07/M08 A303 RMK A01 T10681080  RH  091%=      5-min Rain = 0
KWVS 091120Z 33009KT M07/M08 A303 RMK A01 T10671079  RH  091%=      5-min Rain = 0
KWVS 091125Z 34009KT M07/M08 A303 RMK A01 T10681080  RH  091%=      5-min Rain = 0
KWVS 091130Z 34008KT M07/M08 A303 RMK A01 T10691081  RH  091%=      5-min Rain = 0
KWVS 091135Z 34007KT M07/M08 A303 RMK A01 T10711084  RH  091%=      5-min Rain = 0
KWVS 091140Z 34006KT M07/M09 A3031 RMK A01 T10731086  RH  091%=      5-min Rain = 0
KWVS 091145Z 34006KT M08/M09 A3031 RMK A01 T10751087  RH  091%=      5-min Rain = 0
KWVS 091150Z 34007KT M07/M09 A3031 RMK A01 T10741087  RH  091%=      5-min Rain = 0
KWVS 091155Z 33008KT M07/M09 A3031 RMK A01 T10741086  RH  091%=      5-min Rain = 0
KWVS 091200Z 33009KT M07/M08 A3031 RMK A01 T10721084  RH  091%=      5-min Rain = 0
KWVS 091205Z 33009KT M07/M08 A3031 RMK A01 T10711083  RH  091%=      5-min Rain = 0
KWVS 091210Z 33008KT M07/M09 A3031 RMK A01 T10731085  RH  091%=      5-min Rain = 0
KWVS 091215Z 33008KT M07/M08 A3031 RMK A01 T10721084  RH  091%=      5-min Rain = 0
KWVS 091220Z 34008KT M07/M08 A3032 RMK A01 T10691081  RH  091%=      5-min Rain = 0
KWVS 091225Z 34007KT M07/M08 A3032 RMK A01 T10691081  RH  091%=      5-min Rain = 0
KWVS 091230Z 33007KT M07/M09 A3032 RMK A01 T10731086  RH  091%=      5-min Rain = 0
KWVS 091235Z 33008KT M07/M08 A3032 RMK A01 T10711083  RH  091%=      5-min Rain = 0
KWVS 091240Z 33008KT M07/M08 A3032 RMK A01 T10701082  RH  091%=      5-min Rain = 0
KWVS 091245Z 33008KT M07/M09 A3032 RMK A01 T10721085  RH  090%=      5-min Rain = 0
KWVS 091250Z 33008KT M07/M08 A3032 RMK A01 T10701083  RH  090%=      5-min Rain = 0
KWVS 091255Z 33008KT M07/M08 A3032 RMK A01 T10681081  RH  090%=      5-min Rain = 0
KWVS 091300Z 34008KT M07/M08 A3033 RMK A01 T10691083  RH  090%=      5-min Rain = 0
KWVS 091305Z 34008KT M07/M09 A3033 RMK A01 T10701085  RH  089%=      5-min Rain = 0
KWVS 091310Z 34008KT M07/M09 A3033 RMK A01 T10701085  RH  089%=      5-min Rain = 0
KWVS 091315Z 33007KT M07/M08 A3033 RMK A01 T10691084  RH  089%=      5-min Rain = 0
KWVS 091320Z 33007KT M07/M08 A3033 RMK A01 T10691084  RH  089%=      5-min Rain = 0
KWVS 091325Z 32006KT M07/M09 A3034 RMK A01 T10711086  RH  089%=      5-min Rain = 0
KWVS 091330Z 32006KT M07/M09 A3034 RMK A01 T10731088  RH  089%=      5-min Rain = 0
KWVS 091335Z 32006KT M07/M09 A3034 RMK A01 T10721087  RH  089%=      5-min Rain = 0
KWVS 091340Z 32006KT M07/M09 A3034 RMK A01 T10711086  RH  088%=      5-min Rain = 0
KWVS 091345Z 32006KT M07/M09 A3034 RMK A01 T10711088  RH  087%=      5-min Rain = 0
KWVS 091350Z 32006KT M07/M09 A3034 RMK A01 T10691088  RH  086%=      5-min Rain = 0
KWVS 091355Z 32007KT M07/M09 A3035 RMK A01 T10681089  RH  085%=      5-min Rain = 0
KWVS 091400Z 32007KT M07/M09 A3035 RMK A01 T10691092  RH  083%=      5-min Rain = 0
KWVS 091405Z 32007KT M07/M09 A3035 RMK A01 T10701093  RH  083%=      5-min Rain = 0
KWVS 091410Z 32007KT M07/M09 A3035 RMK A01 T10701093  RH  084%=      5-min Rain = 0
KWVS 091415Z 33007KT M07/M09 A3035 RMK A01 T10701092  RH  084%=      5-min Rain = 0
KWVS 091420Z 33008KT M07/M09 A3035 RMK A01 T10661089  RH  084%=      5-min Rain = 0
KWVS 091425Z 33008KT M07/M09 A3035 RMK A01 T10651088  RH  083%=      5-min Rain = 0
KWVS 091430Z 33008KT M06/M09 A3036 RMK A01 T10631087  RH  083%=      5-min Rain = 0
KWVS 091435Z 32008KT M06/M08 A3036 RMK A01 T10611084  RH  083%=      5-min Rain = 0
KWVS 091440Z 33007KT M06/M08 A3036 RMK A01 T10571082  RH  082%=      5-min Rain = 0
KWVS 091445Z 33008KT M06/M08 A3036 RMK A01 T10551081  RH  082%=      5-min Rain = 0
KWVS 091450Z 33008KT M05/M08 A3037 RMK A01 T10531080  RH  081%=      5-min Rain = 0
KWVS 091455Z 33007KT M05/M08 A3037 RMK A01 T10491079  RH  080%=      5-min Rain = 0
KWVS 091500Z 33007KT M05/M08 A3037 RMK A01 T10471079  RH  078%=      5-min Rain = 0
KWVS 091505Z 32007KT M05/M08 A3037 RMK A01 T10451078  RH  077%=      5-min Rain = 0
KWVS 091510Z 32007KT M04/M08 A3037 RMK A01 T10431078  RH  077%=      5-min Rain = 0
KWVS 091515Z 32008KT M04/M08 A3037 RMK A01 T10411076  RH  076%=      5-min Rain = 0
KWVS 091520Z 32008KT M04/M08 A3037 RMK A01 T10381076  RH  075%=      5-min Rain = 0
KWVS 091525Z 33008KT M04/M08 A3038 RMK A01 T10351075  RH  073%=      5-min Rain = 0
KWVS 091530Z 34008KT M03/M08 A3038 RMK A01 T10331075  RH  073%=      5-min Rain = 0
KWVS 091535Z 33008KT M03/M07 A3038 RMK A01 T10321073  RH  073%=      5-min Rain = 0
KWVS 091540Z 33009KT M03/M07 A3038 RMK A01 T10311073  RH  073%=      5-min Rain = 0
KWVS 091545Z 33009KT M03/M07 A3038 RMK A01 T10291071  RH  073%=      5-min Rain = 0
KWVS 091550Z 34008KT M03/M07 A3038 RMK A01 T10271070  RH  072%=      5-min Rain = 0
KWVS 091555Z 34007KT M02/M07 A3038 RMK A01 T10241070  RH  071%=      5-min Rain = 0
KWVS 091600Z 33007KT M02/M07 A3038 RMK A01 T10221070  RH  070%=      5-min Rain = 0
KWVS 091605Z 32007KT M02/M07 A3039 RMK A01 T10191069  RH  069%=      5-min Rain = 0
KWVS 091610Z 32007KT M02/M07 A3039 RMK A01 T10161068  RH  068%=      5-min Rain = 0
KWVS 091615Z 32006KT M01/M07 A3039 RMK A01 T10121066  RH  067%=      5-min Rain = 0
KWVS 091620Z 32006KT M01/M07 A3039 RMK A01 T10091065  RH  066%=      5-min Rain = 0
KWVS 091625Z 32006KT M01/M06 A3039 RMK A01 T10061063  RH  066%=      5-min Rain = 0
KWVS 091630Z 33007KT M00/M06 A3039 RMK A01 T10041064  RH  064%=      5-min Rain = 0
KWVS 091635Z 33006KT M00/M07 A3039 RMK A01 T10031065  RH  063%=      5-min Rain = 0.01
KWVS 091640Z 33005KT 00/06 A3039 RMK A01 T00000-62  RH  063%=      5-min Rain = 0
KWVS 091645Z 33003KT 00/M06 A3039 RMK A01 T00041061  RH  062%=      5-min Rain = 0
KWVS 091650Z 34002KT 01/M06 A3039 RMK A01 T00071061  RH  060%=      5-min Rain = 0
KWVS 091655Z 34002KT 01/M06 A3039 RMK A01 T00111059  RH  060%=      5-min Rain = 0
KWVS 091700Z 34002KT 02/M06 A3039 RMK A01 T00151058  RH  058%=      5-min Rain = 0
KWVS 091705Z 34002KT 02/M06 A3039 RMK A01 T00161059  RH  058%=      5-min Rain = 0
KWVS 091710Z 32003KT 02/M06 A3039 RMK A01 T00151059  RH  058%=      5-min Rain = 0
KWVS 091715Z 32003KT 02/M06 A3039 RMK A01 T00171055  RH  059%=      5-min Rain = 0
KWVS 091720Z 33004KT 02/M06 A3038 RMK A01 T00191058  RH  057%=      5-min Rain = 0.02
KWVS 091725Z 33004KT 02/M06 A3038 RMK A01 T00191058  RH  057%=      5-min Rain = 0
KWVS 091730Z 33006KT 02/M06 A3039 RMK A01 T00201055  RH  058%=      5-min Rain = 0
KWVS 091735Z 32007KT 02/M05 A3039 RMK A01 T00201053  RH  059%=      5-min Rain = 0.01
KWVS 091740Z 31007KT 02/M05 A3039 RMK A01 T00201048  RH  061%=      5-min Rain = 0
KWVS 091745Z 31007KT 02/M05 A3039 RMK A01 T00201049  RH  060%=      5-min Rain = 0.02
KWVS 091750Z 31006KT 02/M05 A3039 RMK A01 T00211051  RH  059%=      5-min Rain = 0.02
KWVS 091755Z 32007KT 02/M05 A3039 RMK A01 T00201054  RH  058%=      5-min Rain = 0.01
KWVS 091800Z 32007KT 02/M05 A3038 RMK A01 T00201054  RH  058%=      5-min Rain = 0
KWVS 091805Z 32006KT 02/M05 A3038 RMK A01 T00211051  RH  059%=      5-min Rain = 0.01
KWVS 091810Z 32007KT 02/M06 A3037 RMK A01 T00211055  RH  058%=      5-min Rain = 0
KWVS 091815Z 31006KT 02/M05 A3037 RMK A01 T00211051  RH  059%=      5-min Rain = 0.01
KWVS 091820Z 32006KT 02/M05 A3037 RMK A01 T00221051  RH  059%=      5-min Rain = 0
KWVS 091825Z 32006KT 02/M05 A3037 RMK A01 T00231050  RH  058%=      5-min Rain = 0.01
KWVS 091830Z 33006KT 02/M05 A3036 RMK A01 T00241049  RH  059%=      5-min Rain = 0.01
KWVS 091835Z 33006KT 02/M05 A3036 RMK A01 T00241048  RH  059%=      5-min Rain = 0
KWVS 091840Z 34006KT 03/M05 A3036 RMK A01 T00251050  RH  058%=      5-min Rain = 0
KWVS 091845Z 33006KT 03/M05 A3036 RMK A01 T00261054  RH  056%=      5-min Rain = 0.01
KWVS 091850Z 33006KT 03/M06 A3036 RMK A01 T00281055  RH  055%=      5-min Rain = 0
KWVS 091855Z 32005KT 03/M05 A3035 RMK A01 T00301053  RH  055%=      5-min Rain = 0.01
KWVS 091900Z 32006KT 03/M06 A3035 RMK A01 T00301058  RH  053%=      5-min Rain = 0.01
KWVS 091905Z 32005KT 03/M05 A3035 RMK A01 T00311054  RH  054%=      5-min Rain = 0.02
KWVS 091910Z 32006KT 03/M06 A3035 RMK A01 T00311057  RH  052%=      5-min Rain = 0
KWVS 091915Z 33005KT 03/M06 A3035 RMK A01 T00321056  RH  052%=      5-min Rain = 0.01
KWVS 091920Z 32006KT 03/M06 A3035 RMK A01 T00331059  RH  051%=      5-min Rain = 0
KWVS 091925Z 32006KT 03/M06 A3035 RMK A01 T00331057  RH  052%=      5-min Rain = 0
KWVS 091930Z 31006KT 03/M05 A3035 RMK A01 T00331053  RH  053%=      5-min Rain = 0
KWVS 091935Z 31006KT 03/M05 A3035 RMK A01 T00341050  RH  054%=      5-min Rain = 0
KWVS 091940Z 31006KT 03/M05 A3035 RMK A01 T00331050  RH  054%=      5-min Rain = 0
KWVS 091945Z 32006KT 03/M05 A3034 RMK A01 T00331050  RH  055%=      5-min Rain = 0
KWVS 091950Z 31006KT 03/M05 A3034 RMK A01 T00321050  RH  055%=      5-min Rain = 0
KWVS 091955Z 30005KT 03/M05 A3034 RMK A01 T00341047  RH  056%=      5-min Rain = 0
KWVS 092000Z 30006KT 04/M05 A3035 RMK A01 T00361046  RH  055%=      5-min Rain = 0
KWVS 092005Z 30005KT 04/M05 A3035 RMK A01 T00361045  RH  055%=      5-min Rain = 0
KWVS 092010Z 30006KT 04/M05 A3034 RMK A01 T00361046  RH  055%=      5-min Rain = 0
KWVS 092015Z 30006KT 04/M05 A3034 RMK A01 T00361046  RH  055%=      5-min Rain = 0
KWVS 092020Z 31006KT 04/M04 A3034 RMK A01 T00371043  RH  056%=      5-min Rain = 0
KWVS 092025Z 31006KT 04/M04 A3034 RMK A01 T00371044  RH  056%=      5-min Rain = 0
KWVS 092030Z 31007KT 04/M05 A3034 RMK A01 T00361046  RH  055%=      5-min Rain = 0
KWVS 092035Z 32007KT 04/M05 A3034 RMK A01 T00351046  RH  055%=      5-min Rain = 0
KWVS 092040Z 32006KT 04/M05 A3034 RMK A01 T00351045  RH  056%=      5-min Rain = 0
KWVS 092045Z 32007KT 04/M05 A3034 RMK A01 T00351045  RH  056%=      5-min Rain = 0
KWVS 092050Z 31006KT 04/M04 A3034 RMK A01 T00351044  RH  056%=      5-min Rain = 0
KWVS 092055Z 31007KT 04/M04 A3034 RMK A01 T00361043  RH  056%=      5-min Rain = 0
KWVS 092100Z 31006KT 04/M04 A3034 RMK A01 T00361042  RH  057%=      5-min Rain = 0
KWVS 092105Z 32006KT 04/M04 A3034 RMK A01 T00371039  RH  058%=      5-min Rain = 0
KWVS 092110Z 32006KT 04/M04 A3034 RMK A01 T00361040  RH  058%=      5-min Rain = 0
KWVS 092115Z 32006KT 04/M04 A3034 RMK A01 T00361042  RH  057%=      5-min Rain = 0
KWVS 092120Z 32007KT 04/M04 A3034 RMK A01 T00361041  RH  057%=      5-min Rain = 0
KWVS 092125Z 32007KT 04/M04 A3034 RMK A01 T00361038  RH  059%=      5-min Rain = 0
KWVS 092130Z 32007KT 04/M04 A3034 RMK A01 T00361039  RH  058%=      5-min Rain = 0
KWVS 092135Z 32006KT 04/M04 A3034 RMK A01 T00361038  RH  059%=      5-min Rain = 0
KWVS 092140Z 32006KT 04/M04 A3034 RMK A01 T00361037  RH  059%=      5-min Rain = 0
KWVS 092145Z 32006KT 04/M04 A3034 RMK A01 T00371037  RH  059%=      5-min Rain = 0
KWVS 092150Z 32006KT 04/M04 A3034 RMK A01 T00361036  RH  060%=      5-min Rain = 0
KWVS 092155Z 33006KT 04/M04 A3033 RMK A01 T00351036  RH  060%=      5-min Rain = 0
KWVS 092200Z 33007KT 04/M04 A3034 RMK A01 T00351038  RH  059%=      5-min Rain = 0
KWVS 092205Z 33007KT 03/M04 A3034 RMK A01 T00341041  RH  058%=      5-min Rain = 0
KWVS 092210Z 33007KT 03/M04 A3034 RMK A01 T00331041  RH  059%=      5-min Rain = 0
KWVS 092215Z 33006KT 03/M04 A3034 RMK A01 T00321040  RH  059%=      5-min Rain = 0
KWVS 092220Z 32005KT 03/M04 A3034 RMK A01 T00321039  RH  060%=      5-min Rain = 0
KWVS 092225Z 32006KT 03/M04 A3034 RMK A01 T00321040  RH  059%=      5-min Rain = 0
KWVS 092230Z 32006KT 03/M04 A3034 RMK A01 T00311042  RH  059%=      5-min Rain = 0
KWVS 092235Z 32006KT 03/M04 A3034 RMK A01 T00301042  RH  059%=      5-min Rain = 0
KWVS 092240Z 32005KT 03/M04 A3034 RMK A01 T00291041  RH  060%=      5-min Rain = 0
KWVS 092245Z 31005KT 03/M04 A3034 RMK A01 T00271040  RH  061%=      5-min Rain = 0
KWVS 092250Z 31005KT 03/M04 A3034 RMK A01 T00251039  RH  063%=      5-min Rain = 0
KWVS 092255Z 32005KT 02/M04 A3034 RMK A01 T00241036  RH  065%=      5-min Rain = 0
KWVS 092300Z 32006KT 02/M04 A3034 RMK A01 T00221038  RH  065%=      5-min Rain = 0
KWVS 092305Z 32006KT 02/M04 A3034 RMK A01 T00191039  RH  065%=      5-min Rain = 0
KWVS 092310Z 32006KT 02/M04 A3034 RMK A01 T00171041  RH  066%=      5-min Rain = 0
KWVS 092315Z 31005KT 02/M04 A3034 RMK A01 T00151041  RH  067%=      5-min Rain = 0
KWVS 092320Z 31004KT 01/M04 A3034 RMK A01 T00141040  RH  067%=      5-min Rain = 0
KWVS 092325Z 31003KT 01/M04 A3034 RMK A01 T00111041  RH  069%=      5-min Rain = 0
KWVS 092330Z 30003KT 01/M04 A3034 RMK A01 T00101040  RH  069%=      5-min Rain = 0
KWVS 092335Z 28003KT 01/M04 A3034 RMK A01 T00121039  RH  069%=      5-min Rain = 0
KWVS 092340Z 28003KT 01/M04 A3034 RMK A01 T00111039  RH  069%=      5-min Rain = 0
KWVS 092345Z 29004KT 01/M04 A3034 RMK A01 T00081041  RH  070%=      5-min Rain = 0
KWVS 092350Z 30004KT 00/M04 A3034 RMK A01 T00041042  RH  071%=      5-min Rain = 0
KWVS 092355Z 31004KT 00/M04 A3034 RMK A01 T00011041  RH  073%=      5-min Rain = 0
KWVS 100000Z 30004KT M00/M04 A3033 RMK A01 T10011042  RH  074%=      5-min Rain = 0
KWVS 100005Z 30004KT M00/M04 A3033 RMK A01 T10011043  RH  073%=      5-min Rain = 0
KWVS 100010Z 30005KT M00/M05 A3033 RMK A01 T10031046  RH  073%=      5-min Rain = 0
KWVS 100015Z 29005KT M00/M05 A3034 RMK A01 T10041046  RH  074%=      5-min Rain = 0
KWVS 100020Z 29005KT M01/M05 A3034 RMK A01 T10051046  RH  074%=      5-min Rain = 0
KWVS 100025Z 28004KT M01/M05 A3034 RMK A01 T10061046  RH  075%=      5-min Rain = 0
KWVS 100030Z 28006KT M01/M05 A3034 RMK A01 T10061045  RH  075%=      5-min Rain = 0
KWVS 100035Z 28006KT M01/M04 A3034 RMK A01 T10071044  RH  076%=      5-min Rain = 0
KWVS 100040Z 27005KT M01/M04 A3034 RMK A01 T10071043  RH  077%=      5-min Rain = 0
KWVS 100045Z 26005KT M01/M04 A3034 RMK A01 T10091043  RH  078%=      5-min Rain = 0
KWVS 100050Z 25005KT M01/M04 A3034 RMK A01 T10091041  RH  079%=      5-min Rain = 0
KWVS 100055Z 27004KT M01/M04 A3034 RMK A01 T10081039  RH  080%=      5-min Rain = 0
KWVS 100100Z 29004KT M02/M04 A3034 RMK A01 T10151044  RH  081%=      5-min Rain = 0
KWVS 100105Z 28005KT M01/M04 A3034 RMK A01 T10141041  RH  082%=      5-min Rain = 0
KWVS 100110Z 28006KT M01/M04 A3034 RMK A01 T10111041  RH  081%=      5-min Rain = 0
KWVS 100115Z 30005KT M01/M05 A3034 RMK A01 T10141045  RH  080%=      5-min Rain = 0
KWVS 100120Z 31005KT M02/M05 A3034 RMK A01 T10161045  RH  081%=      5-min Rain = 0
KWVS 100125Z 31005KT M02/M05 A3035 RMK A01 T10151045  RH  080%=      5-min Rain = 0
KWVS 100130Z 31006KT M02/M05 A3035 RMK A01 T10151046  RH  080%=      5-min Rain = 0
KWVS 100135Z 32006KT M01/M05 A3035 RMK A01 T10131047  RH  078%=      5-min Rain = 0
KWVS 100140Z 34004KT M02/M05 A3036 RMK A01 T10171050  RH  078%=      5-min Rain = 0
KWVS 100145Z 32004KT M02/M05 A3036 RMK A01 T10171049  RH  079%=      5-min Rain = 0
KWVS 100150Z 31005KT M02/M05 A3035 RMK A01 T10171049  RH  079%=      5-min Rain = 0
KWVS 100155Z 31006KT M02/M05 A3036 RMK A01 T10151048  RH  079%=      5-min Rain = 0
KWVS 100200Z 31007KT M01/M05 A3036 RMK A01 T10131048  RH  077%=      5-min Rain = 0
KWVS 100205Z 31006KT M02/M05 A3036 RMK A01 T10191053  RH  078%=      5-min Rain = 0
KWVS 100210Z 32005KT M02/M05 A3036 RMK A01 T10211052  RH  079%=      5-min Rain = 0
KWVS 100215Z 32007KT M02/M05 A3036 RMK A01 T10201052  RH  079%=      5-min Rain = 0
KWVS 100220Z 32006KT M02/M05 A3036 RMK A01 T10211052  RH  079%=      5-min Rain = 0
KWVS 100225Z 31006KT M02/M05 A3036 RMK A01 T10191051  RH  079%=      5-min Rain = 0
KWVS 100230Z 30006KT M02/M05 A3036 RMK A01 T10171051  RH  078%=      5-min Rain = 0
KWVS 100235Z 31005KT M02/M05 A3036 RMK A01 T10171052  RH  077%=      5-min Rain = 0
KWVS 100240Z 31005KT M02/M05 A3036 RMK A01 T10161050  RH  078%=      5-min Rain = 0
KWVS 100245Z 31005KT M01/M05 A3036 RMK A01 T10121050  RH  076%=      5-min Rain = 0
KWVS 100250Z 31005KT M01/M05 A3036 RMK A01 T10131051  RH  075%=      5-min Rain = 0
KWVS 100255Z 31006KT M01/M05 A3037 RMK A01 T10131052  RH  075%=      5-min Rain = 0
KWVS 100300Z 30006KT M01/M05 A3037 RMK A01 T10141052  RH  075%=      5-min Rain = 0
KWVS 100305Z 30005KT M02/M05 A3037 RMK A01 T10151053  RH  075%=      5-min Rain = 0
KWVS 100310Z 30004KT M02/M06 A3037 RMK A01 T10181055  RH  076%=      5-min Rain = 0
KWVS 100315Z 31005KT M02/M05 A3037 RMK A01 T10181054  RH  077%=      5-min Rain = 0
KWVS 100320Z 32005KT M02/M06 A3037 RMK A01 T10181056  RH  076%=      5-min Rain = 0
KWVS 100325Z 31003KT M02/M06 A3036 RMK A01 T10241059  RH  077%=      5-min Rain = 0
KWVS 100330Z 27003KT M02/M06 A3036 RMK A01 T10241057  RH  078%=      5-min Rain = 0
KWVS 100335Z 31004KT M03/M06 A3037 RMK A01 T10251058  RH  078%=      5-min Rain = 0
KWVS 100340Z 33004KT M03/M06 A3037 RMK A01 T10271059  RH  078%=      5-min Rain = 0
KWVS 100345Z 32004KT M03/M06 A3036 RMK A01 T10261060  RH  078%=      5-min Rain = 0
KWVS 100350Z 28002KT M02/M06 A3036 RMK A01 T10241058  RH  078%=      5-min Rain = 0
KWVS 100355Z 29003KT M02/M06 A3037 RMK A01 T10201055  RH  077%=      5-min Rain = 0
KWVS 100400Z 32005KT M02/M06 A3037 RMK A01 T10231059  RH  076%=      5-min Rain = 0
KWVS 100405Z 32007KT M03/M06 A3037 RMK A01 T10251059  RH  077%=      5-min Rain = 0
KWVS 100410Z 32006KT M02/M06 A3037 RMK A01 T10231059  RH  077%=      5-min Rain = 0
KWVS 100415Z 32007KT M03/M06 A3037 RMK A01 T10251060  RH  077%=      5-min Rain = 0
KWVS 100420Z 32007KT M02/M06 A3037 RMK A01 T10241058  RH  077%=      5-min Rain = 0
KWVS 100425Z 32006KT M02/M06 A3037 RMK A01 T10231059  RH  077%=      5-min Rain = 0
KWVS 100430Z 32006KT M02/M06 A3037 RMK A01 T10241060  RH  077%=      5-min Rain = 0
KWVS 100435Z 32006KT M02/M06 A3037 RMK A01 T10241060  RH  077%=      5-min Rain = 0
KWVS 100440Z 32007KT M02/M06 A3037 RMK A01 T10211058  RH  076%=      5-min Rain = 0
KWVS 100445Z 32006KT M02/M06 A3037 RMK A01 T10211059  RH  075%=      5-min Rain = 0
KWVS 100450Z 32007KT M02/M06 A3037 RMK A01 T10171056  RH  075%=      5-min Rain = 0
KWVS 100455Z 32007KT M01/M06 A3037 RMK A01 T10141056  RH  073%=      5-min Rain = 0
KWVS 100500Z 31006KT M02/M06 A3037 RMK A01 T10171058  RH  074%=      5-min Rain = 0
KWVS 100505Z 30006KT M02/M06 A3037 RMK A01 T10211060  RH  075%=      5-min Rain = 0
KWVS 100510Z 29005KT M03/M06 A3036 RMK A01 T10261062  RH  077%=      5-min Rain = 0
KWVS 100515Z 30005KT M03/M06 A3037 RMK A01 T10271061  RH  078%=      5-min Rain = 0
KWVS 100520Z 32006KT M02/M06 A3037 RMK A01 T10231056  RH  078%=      5-min Rain = 0
KWVS 100525Z 33007KT M02/M06 A3037 RMK A01 T10181057  RH  075%=      5-min Rain = 0
KWVS 100530Z 33008KT M02/M06 A3037 RMK A01 T10201058  RH  075%=      5-min Rain = 0
KWVS 100535Z 32008KT M02/M06 A3037 RMK A01 T10201058  RH  076%=      5-min Rain = 0
KWVS 100540Z 32008KT M02/M06 A3037 RMK A01 T10181056  RH  075%=      5-min Rain = 0
KWVS 100545Z 32008KT M02/M05 A3036 RMK A01 T10151054  RH  075%=      5-min Rain = 0
KWVS 100550Z 32008KT M01/M05 A3037 RMK A01 T10131053  RH  074%=      5-min Rain = 0
KWVS 100555Z 29005KT M02/M06 A3036 RMK A01 T10161056  RH  074%=      5-min Rain = 0

Page generated in 0.0093 seconds.